sensor_id;sensor_type;location;lat;lon;timestamp;P1;durP1;ratioP1;P2;durP2;ratioP2
2712;SDS011;1366;47.988;7.856;2023-02-28T05:01:06;5.10;;;4.70;;
2712;SDS011;1366;47.988;7.856;2023-02-28T05:03:40;5.80;;;5.20;;
2712;SDS011;1366;47.988;7.856;2023-02-28T05:06:07;4.70;;;4.30;;
2712;SDS011;1366;47.988;7.856;2023-02-28T05:08:33;6.03;;;5.27;;
2712;SDS011;1366;47.988;7.856;2023-02-28T05:10:59;5.50;;;4.97;;
2712;SDS011;1366;47.988;7.856;2023-02-28T05:13:26;5.30;;;4.80;;
2712;SDS011;1366;47.988;7.856;2023-02-28T05:15:52;5.07;;;4.60;;
2712;SDS011;1366;47.988;7.856;2023-02-28T05:18:18;6.67;;;5.27;;
2712;SDS011;1366;47.988;7.856;2023-02-28T05:20:45;5.10;;;4.70;;
2712;SDS011;1366;47.988;7.856;2023-02-28T05:23:11;4.70;;;4.20;;
2712;SDS011;1366;47.988;7.856;2023-02-28T05:25:38;5.57;;;5.07;;
2712;SDS011;1366;47.988;7.856;2023-02-28T05:28:04;5.23;;;4.80;;
2712;SDS011;1366;47.988;7.856;2023-02-28T05:30:31;7.37;;;4.93;;
2712;SDS011;1366;47.988;7.856;2023-02-28T05:32:57;5.17;;;4.77;;
2712;SDS011;1366;47.988;7.856;2023-02-28T05:35:24;5.23;;;4.83;;
2712;SDS011;1366;47.988;7.856;2023-02-28T05:37:50;5.43;;;4.93;;
2712;SDS011;1366;47.988;7.856;2023-02-28T05:40:16;5.57;;;5.07;;
2712;SDS011;1366;47.988;7.856;2023-02-28T05:42:42;5.10;;;4.70;;
2712;SDS011;1366;47.988;7.856;2023-02-28T05:45:08;5.37;;;4.97;;
2712;SDS011;1366;47.988;7.856;2023-02-28T05:47:35;5.73;;;5.13;;
2712;SDS011;1366;47.988;7.856;2023-02-28T05:50:02;6.17;;;5.57;;
2712;SDS011;1366;47.988;7.856;2023-02-28T05:52:28;6.30;;;5.80;;
2712;SDS011;1366;47.988;7.856;2023-02-28T05:54:57;6.47;;;5.73;;
2712;SDS011;1366;47.988;7.856;2023-02-28T05:57:23;6.10;;;5.60;;
2712;SDS011;1366;47.988;7.856;2023-02-28T05:59:50;6.50;;;5.90;;
2712;SDS011;1366;47.988;7.856;2023-02-28T06:02:16;6.63;;;5.53;;
2712;SDS011;1366;47.988;7.856;2023-02-28T06:04:43;5.67;;;5.17;;
2712;SDS011;1366;47.988;7.856;2023-02-28T06:07:09;5.90;;;5.40;;
2712;SDS011;1366;47.988;7.856;2023-02-28T06:09:36;6.50;;;5.23;;
2712;SDS011;1366;47.988;7.856;2023-02-28T06:12:04;6.27;;;5.67;;
2712;SDS011;1366;47.988;7.856;2023-02-28T06:14:35;5.23;;;4.83;;
2712;SDS011;1366;47.988;7.856;2023-02-28T06:17:01;5.20;;;4.70;;
2712;SDS011;1366;47.988;7.856;2023-02-28T06:19:27;9.63;;;6.43;;
2712;SDS011;1366;47.988;7.856;2023-02-28T06:21:55;7.67;;;5.97;;
2712;SDS011;1366;47.988;7.856;2023-02-28T06:24:22;5.83;;;5.30;;
2712;SDS011;1366;47.988;7.856;2023-02-28T06:26:49;6.33;;;5.73;;
2712;SDS011;1366;47.988;7.856;2023-02-28T06:29:15;6.37;;;5.77;;
2712;SDS011;1366;47.988;7.856;2023-02-28T06:31:45;7.40;;;6.17;;
2712;SDS011;1366;47.988;7.856;2023-02-28T06:34:11;6.47;;;5.87;;
2712;SDS011;1366;47.988;7.856;2023-02-28T06:36:38;6.30;;;5.47;;
2712;SDS011;1366;47.988;7.856;2023-02-28T06:39:04;7.83;;;5.70;;
2712;SDS011;1366;47.988;7.856;2023-02-28T06:41:30;6.90;;;6.10;;
2712;SDS011;1366;47.988;7.856;2023-02-28T06:43:56;5.90;;;5.40;;
2712;SDS011;1366;47.988;7.856;2023-02-28T06:46:22;6.40;;;5.80;;
2712;SDS011;1366;47.988;7.856;2023-02-28T06:48:48;6.33;;;5.73;;
2712;SDS011;1366;47.988;7.856;2023-02-28T06:51:16;7.17;;;6.47;;
2712;SDS011;1366;47.988;7.856;2023-02-28T06:53:42;6.10;;;5.50;;
2712;SDS011;1366;47.988;7.856;2023-02-28T06:56:10;6.03;;;5.53;;
2712;SDS011;1366;47.988;7.856;2023-02-28T06:58:36;7.83;;;5.87;;
2712;SDS011;1366;47.988;7.856;2023-02-28T07:01:03;6.37;;;5.77;;
2712;SDS011;1366;47.988;7.856;2023-02-28T07:03:29;6.53;;;5.77;;
2712;SDS011;1366;47.988;7.856;2023-02-28T07:05:55;5.93;;;5.43;;
2712;SDS011;1366;47.988;7.856;2023-02-28T07:08:22;6.90;;;6.20;;
2712;SDS011;1366;47.988;7.856;2023-02-28T07:10:51;6.70;;;6.10;;
2712;SDS011;1366;47.988;7.856;2023-02-28T07:13:18;6.60;;;6.00;;
2712;SDS011;1366;47.988;7.856;2023-02-28T07:15:44;6.17;;;5.57;;
2712;SDS011;1366;47.988;7.856;2023-02-28T07:18:10;6.07;;;5.47;;
2712;SDS011;1366;47.988;7.856;2023-02-28T07:20:36;6.40;;;5.80;;
2712;SDS011;1366;47.988;7.856;2023-02-28T07:23:02;5.90;;;5.40;;
2712;SDS011;1366;47.988;7.856;2023-02-28T07:25:28;6.60;;;5.93;;
2712;SDS011;1366;47.988;7.856;2023-02-28T07:27:55;5.80;;;5.30;;
2712;SDS011;1366;47.988;7.856;2023-02-28T07:30:21;7.60;;;6.20;;
2712;SDS011;1366;47.988;7.856;2023-02-28T07:32:47;7.23;;;6.40;;
2712;SDS011;1366;47.988;7.856;2023-02-28T07:35:13;6.53;;;5.90;;
2712;SDS011;1366;47.988;7.856;2023-02-28T07:37:40;6.53;;;5.83;;
2712;SDS011;1366;47.988;7.856;2023-02-28T07:40:07;7.43;;;6.10;;
2712;SDS011;1366;47.988;7.856;2023-02-28T07:42:36;6.33;;;5.73;;
2712;SDS011;1366;47.988;7.856;2023-02-28T07:45:03;6.73;;;6.13;;
2712;SDS011;1366;47.988;7.856;2023-02-28T07:47:29;8.20;;;6.93;;
2712;SDS011;1366;47.988;7.856;2023-02-28T07:49:55;6.93;;;6.03;;
2712;SDS011;1366;47.988;7.856;2023-02-28T07:52:21;7.40;;;6.77;;
2712;SDS011;1366;47.988;7.856;2023-02-28T07:54:51;7.77;;;7.03;;
2712;SDS011;1366;47.988;7.856;2023-02-28T07:57:17;7.10;;;6.40;;
2712;SDS011;1366;47.988;7.856;2023-02-28T07:59:43;6.97;;;6.37;;
2712;SDS011;1366;47.988;7.856;2023-02-28T08:02:12;7.63;;;6.93;;
2712;SDS011;1366;47.988;7.856;2023-02-28T08:04:39;8.43;;;7.07;;
2712;SDS011;1366;47.988;7.856;2023-02-28T08:07:05;7.40;;;6.57;;
2712;SDS011;1366;47.988;7.856;2023-02-28T08:09:31;6.80;;;6.20;;
2712;SDS011;1366;47.988;7.856;2023-02-28T08:11:57;7.17;;;6.57;;
2712;SDS011;1366;47.988;7.856;2023-02-28T08:14:23;7.30;;;6.60;;
2712;SDS011;1366;47.988;7.856;2023-02-28T08:16:49;7.37;;;6.70;;
2712;SDS011;1366;47.988;7.856;2023-02-28T08:19:15;7.43;;;6.73;;
2712;SDS011;1366;47.988;7.856;2023-02-28T08:21:41;8.63;;;6.90;;
2712;SDS011;1366;47.988;7.856;2023-02-28T08:24:08;9.03;;;7.60;;
2712;SDS011;1366;47.988;7.856;2023-02-28T08:26:34;7.07;;;6.37;;
2712;SDS011;1366;47.988;7.856;2023-02-28T08:29:00;7.03;;;6.43;;
2712;SDS011;1366;47.988;7.856;2023-02-28T08:31:26;6.70;;;6.20;;
2712;SDS011;1366;47.988;7.856;2023-02-28T08:33:52;7.60;;;6.60;;
2712;SDS011;1366;47.988;7.856;2023-02-28T08:36:21;7.60;;;6.80;;
2712;SDS011;1366;47.988;7.856;2023-02-28T08:38:47;7.53;;;6.83;;
2712;SDS011;1366;47.988;7.856;2023-02-28T08:41:14;8.13;;;7.30;;
2712;SDS011;1366;47.988;7.856;2023-02-28T08:43:40;8.03;;;7.27;;
2712;SDS011;1366;47.988;7.856;2023-02-28T08:46:06;9.03;;;7.53;;
2712;SDS011;1366;47.988;7.856;2023-02-28T08:48:33;8.63;;;7.00;;
2712;SDS011;1366;47.988;7.856;2023-02-28T08:51:17;8.20;;;6.90;;
2712;SDS011;1366;47.988;7.856;2023-02-28T08:53:47;9.40;;;7.43;;
2712;SDS011;1366;47.988;7.856;2023-02-28T08:56:16;8.70;;;7.47;;
2712;SDS011;1366;47.988;7.856;2023-02-28T08:58:42;7.20;;;6.50;;
2712;SDS011;1366;47.988;7.856;2023-02-28T09:03:35;10.53;;;7.60;;
2712;SDS011;1366;47.988;7.856;2023-02-28T09:06:01;8.20;;;7.30;;
2712;SDS011;1366;47.988;7.856;2023-02-28T09:08:28;8.20;;;7.30;;
2712;SDS011;1366;47.988;7.856;2023-02-28T09:10:55;7.43;;;6.73;;
2712;SDS011;1366;47.988;7.856;2023-02-28T09:13:22;8.90;;;6.80;;
2712;SDS011;1366;47.988;7.856;2023-02-28T09:15:49;7.83;;;7.07;;
2712;SDS011;1366;47.988;7.856;2023-02-28T09:18:15;9.63;;;7.10;;
2712;SDS011;1366;47.988;7.856;2023-02-28T09:20:41;9.07;;;8.00;;
2712;SDS011;1366;47.988;7.856;2023-02-28T09:23:08;7.83;;;7.13;;
2712;SDS011;1366;47.988;7.856;2023-02-28T09:25:34;8.63;;;7.70;;
2712;SDS011;1366;47.988;7.856;2023-02-28T09:28:00;8.00;;;7.27;;
2712;SDS011;1366;47.988;7.856;2023-02-28T09:30:27;8.50;;;7.70;;
2712;SDS011;1366;47.988;7.856;2023-02-28T09:32:53;11.10;;;7.47;;
2712;SDS011;1366;47.988;7.856;2023-02-28T09:35:23;9.10;;;7.40;;
2712;SDS011;1366;47.988;7.856;2023-02-28T09:37:49;8.03;;;7.33;;
2712;SDS011;1366;47.988;7.856;2023-02-28T09:40:17;8.93;;;8.07;;
2712;SDS011;1366;47.988;7.856;2023-02-28T09:42:45;8.87;;;8.07;;
2712;SDS011;1366;47.988;7.856;2023-02-28T09:45:26;8.60;;;7.70;;
2712;SDS011;1366;47.988;7.856;2023-02-28T09:47:56;8.30;;;7.10;;
2712;SDS011;1366;47.988;7.856;2023-02-28T09:50:35;11.20;;;8.93;;
2712;SDS011;1366;47.988;7.856;2023-02-28T09:53:03;11.87;;;10.67;;
2712;SDS011;1366;47.988;7.856;2023-02-28T09:55:39;8.90;;;8.03;;
2712;SDS011;1366;47.988;7.856;2023-02-28T09:58:19;8.97;;;8.07;;
2712;SDS011;1366;47.988;7.856;2023-02-28T10:00:46;8.60;;;6.90;;
2712;SDS011;1366;47.988;7.856;2023-02-28T10:11:16;9.50;;;8.47;;
2712;SDS011;1366;47.988;7.856;2023-02-28T10:13:53;9.20;;;8.30;;
2712;SDS011;1366;47.988;7.856;2023-02-28T10:16:28;8.17;;;7.37;;
2712;SDS011;1366;47.988;7.856;2023-02-28T10:18:58;8.40;;;7.67;;
2712;SDS011;1366;47.988;7.856;2023-02-28T10:22:10;9.30;;;7.83;;
2712;SDS011;1366;47.988;7.856;2023-02-28T10:26:41;10.50;;;8.97;;
2712;SDS011;1366;47.988;7.856;2023-02-28T10:29:09;8.70;;;7.80;;
2712;SDS011;1366;47.988;7.856;2023-02-28T10:31:36;8.40;;;7.70;;
2712;SDS011;1366;47.988;7.856;2023-02-28T10:34:02;10.23;;;8.10;;
2712;SDS011;1366;47.988;7.856;2023-02-28T10:36:29;8.23;;;7.40;;
2712;SDS011;1366;47.988;7.856;2023-02-28T10:38:55;9.23;;;7.93;;
2712;SDS011;1366;47.988;7.856;2023-02-28T10:41:28;9.90;;;8.20;;
2712;SDS011;1366;47.988;7.856;2023-02-28T10:46:40;8.73;;;7.70;;
2712;SDS011;1366;47.988;7.856;2023-02-28T10:49:12;8.90;;;8.00;;
2712;SDS011;1366;47.988;7.856;2023-02-28T10:51:40;7.97;;;7.20;;
2712;SDS011;1366;47.988;7.856;2023-02-28T10:54:14;7.90;;;7.20;;
2712;SDS011;1366;47.988;7.856;2023-02-28T10:56:41;8.43;;;7.63;;
2712;SDS011;1366;47.988;7.856;2023-02-28T11:01:40;8.10;;;7.33;;
2712;SDS011;1366;47.988;7.856;2023-02-28T11:04:16;8.10;;;7.30;;
2712;SDS011;1366;47.988;7.856;2023-02-28T11:06:43;8.67;;;7.87;;
2712;SDS011;1366;47.988;7.856;2023-02-28T11:09:22;8.17;;;7.37;;
2712;SDS011;1366;47.988;7.856;2023-02-28T11:11:49;8.23;;;7.43;;
2712;SDS011;1366;47.988;7.856;2023-02-28T11:14:19;8.27;;;7.47;;
2712;SDS011;1366;47.988;7.856;2023-02-28T11:16:46;9.03;;;7.83;;
2712;SDS011;1366;47.988;7.856;2023-02-28T11:19:17;9.00;;;8.07;;
2712;SDS011;1366;47.988;7.856;2023-02-28T11:21:48;8.83;;;7.17;;
2712;SDS011;1366;47.988;7.856;2023-02-28T11:24:25;8.30;;;7.50;;
2712;SDS011;1366;47.988;7.856;2023-02-28T11:26:52;8.67;;;7.77;;
2712;SDS011;1366;47.988;7.856;2023-02-28T11:29:19;8.77;;;7.87;;
2712;SDS011;1366;47.988;7.856;2023-02-28T11:34:27;8.93;;;8.03;;
2712;SDS011;1366;47.988;7.856;2023-02-28T11:36:54;9.20;;;7.73;;
2712;SDS011;1366;47.988;7.856;2023-02-28T11:39:21;12.10;;;9.87;;
2712;SDS011;1366;47.988;7.856;2023-02-28T11:46:54;11.00;;;9.10;;
2712;SDS011;1366;47.988;7.856;2023-02-28T11:49:27;11.00;;;9.67;;
2712;SDS011;1366;47.988;7.856;2023-02-28T11:52:19;9.93;;;8.87;;
2712;SDS011;1366;47.988;7.856;2023-02-28T11:54:53;10.70;;;9.37;;
2712;SDS011;1366;47.988;7.856;2023-02-28T11:59:59;9.00;;;8.03;;
2712;SDS011;1366;47.988;7.856;2023-02-28T12:28:28;9.07;;;8.17;;
2712;SDS011;1366;47.988;7.856;2023-02-28T12:33:22;9.53;;;8.57;;
2712;SDS011;1366;47.988;7.856;2023-02-28T12:35:51;10.07;;;9.00;;
2712;SDS011;1366;47.988;7.856;2023-02-28T12:38:31;11.53;;;9.27;;
2712;SDS011;1366;47.988;7.856;2023-02-28T12:41:01;9.60;;;8.50;;
2712;SDS011;1366;47.988;7.856;2023-02-28T12:43:36;9.23;;;8.30;;
2712;SDS011;1366;47.988;7.856;2023-02-28T12:46:11;12.97;;;9.67;;
2712;SDS011;1366;47.988;7.856;2023-02-28T12:48:46;9.87;;;8.80;;
2712;SDS011;1366;47.988;7.856;2023-02-28T12:51:13;9.70;;;8.73;;
2712;SDS011;1366;47.988;7.856;2023-02-28T12:56:17;11.30;;;10.20;;
2712;SDS011;1366;47.988;7.856;2023-02-28T12:58:46;10.63;;;9.53;;
2712;SDS011;1366;47.988;7.856;2023-02-28T13:09:21;10.63;;;9.50;;
2712;SDS011;1366;47.988;7.856;2023-02-28T13:11:50;9.93;;;8.93;;
2712;SDS011;1366;47.988;7.856;2023-02-28T13:17:02;7.60;;;6.83;;
2712;SDS011;1366;47.988;7.856;2023-02-28T13:19:30;9.67;;;8.83;;
2712;SDS011;1366;47.988;7.856;2023-02-28T13:21:57;10.43;;;9.07;;
2712;SDS011;1366;47.988;7.856;2023-02-28T13:24:41;9.63;;;8.73;;
2712;SDS011;1366;47.988;7.856;2023-02-28T13:29:37;9.63;;;8.50;;
2712;SDS011;1366;47.988;7.856;2023-02-28T13:39:46;10.57;;;9.53;;
2712;SDS011;1366;47.988;7.856;2023-02-28T13:47:36;10.80;;;9.70;;
2712;SDS011;1366;47.988;7.856;2023-02-28T13:50:14;10.10;;;9.10;;
2712;SDS011;1366;47.988;7.856;2023-02-28T13:55:31;9.80;;;8.80;;
2712;SDS011;1366;47.988;7.856;2023-02-28T13:58:08;10.17;;;9.20;;
2712;SDS011;1366;47.988;7.856;2023-02-28T14:03:43;9.73;;;8.77;;
2712;SDS011;1366;47.988;7.856;2023-02-28T14:08:47;9.70;;;8.77;;
2712;SDS011;1366;47.988;7.856;2023-02-28T14:11:27;9.90;;;9.00;;
2712;SDS011;1366;47.988;7.856;2023-02-28T14:13:53;12.43;;;9.57;;
2712;SDS011;1366;47.988;7.856;2023-02-28T14:16:26;10.40;;;9.40;;
2712;SDS011;1366;47.988;7.856;2023-02-28T14:19:28;11.17;;;8.40;;
2712;SDS011;1366;47.988;7.856;2023-02-28T14:22:39;10.23;;;9.20;;
2712;SDS011;1366;47.988;7.856;2023-02-28T14:24:39;9.20;;;8.30;;
2712;SDS011;1366;47.988;7.856;2023-02-28T14:37:37;10.23;;;9.07;;
2712;SDS011;1366;47.988;7.856;2023-02-28T14:40:04;10.63;;;9.00;;
2712;SDS011;1366;47.988;7.856;2023-02-28T14:44:56;10.87;;;9.37;;
2712;SDS011;1366;47.988;7.856;2023-02-28T14:47:23;10.33;;;9.20;;
2712;SDS011;1366;47.988;7.856;2023-02-28T14:49:51;10.10;;;9.10;;
2712;SDS011;1366;47.988;7.856;2023-02-28T14:54:43;11.30;;;10.10;;
2712;SDS011;1366;47.988;7.856;2023-02-28T14:57:29;9.90;;;9.00;;
2712;SDS011;1366;47.988;7.856;2023-02-28T14:59:59;10.50;;;9.50;;
2712;SDS011;1366;47.988;7.856;2023-02-28T15:02:29;10.80;;;9.70;;
2712;SDS011;1366;47.988;7.856;2023-02-28T15:05:00;10.70;;;9.60;;
2712;SDS011;1366;47.988;7.856;2023-02-28T15:07:27;11.97;;;10.70;;
2712;SDS011;1366;47.988;7.856;2023-02-28T15:12:39;12.20;;;10.90;;
2712;SDS011;1366;47.988;7.856;2023-02-28T15:15:05;10.60;;;9.60;;
2712;SDS011;1366;47.988;7.856;2023-02-28T15:17:32;11.50;;;10.30;;
2712;SDS011;1366;47.988;7.856;2023-02-28T15:19:59;12.03;;;10.70;;
2712;SDS011;1366;47.988;7.856;2023-02-28T15:22:31;10.10;;;9.07;;
2712;SDS011;1366;47.988;7.856;2023-02-28T15:25:00;11.53;;;10.43;;
2712;SDS011;1366;47.988;7.856;2023-02-28T15:27:29;12.13;;;10.70;;
2712;SDS011;1366;47.988;7.856;2023-02-28T15:29:58;11.77;;;10.67;;
2712;SDS011;1366;47.988;7.856;2023-02-28T15:34:50;11.43;;;10.33;;
2712;SDS011;1366;47.988;7.856;2023-02-28T15:39:53;11.10;;;10.00;;
2712;SDS011;1366;47.988;7.856;2023-02-28T15:42:20;12.57;;;11.03;;
2712;SDS011;1366;47.988;7.856;2023-02-28T15:44:47;11.07;;;10.03;;
2712;SDS011;1366;47.988;7.856;2023-02-28T15:47:23;11.33;;;10.33;;
2712;SDS011;1366;47.988;7.856;2023-02-28T15:49:53;10.90;;;9.90;;
2712;SDS011;1366;47.988;7.856;2023-02-28T15:52:39;12.40;;;11.20;;
2712;SDS011;1366;47.988;7.856;2023-02-28T15:57:35;11.57;;;10.47;;
2712;SDS011;1366;47.988;7.856;2023-02-28T16:00:01;11.53;;;10.33;;
2712;SDS011;1366;47.988;7.856;2023-02-28T16:02:34;11.10;;;10.00;;
2712;SDS011;1366;47.988;7.856;2023-02-28T16:07:27;11.47;;;10.37;;
2712;SDS011;1366;47.988;7.856;2023-02-28T16:09:53;11.27;;;10.17;;
2712;SDS011;1366;47.988;7.856;2023-02-28T16:12:20;11.97;;;10.70;;
2712;SDS011;1366;47.988;7.856;2023-02-28T16:14:47;10.63;;;9.60;;
2712;SDS011;1366;47.988;7.856;2023-02-28T16:17:22;11.70;;;10.43;;
2712;SDS011;1366;47.988;7.856;2023-02-28T16:19:48;11.93;;;10.83;;
2712;SDS011;1366;47.988;7.856;2023-02-28T16:22:14;11.27;;;10.13;;
2712;SDS011;1366;47.988;7.856;2023-02-28T16:24:40;13.37;;;11.10;;
2712;SDS011;1366;47.988;7.856;2023-02-28T16:27:06;11.60;;;10.40;;
2712;SDS011;1366;47.988;7.856;2023-02-28T16:29:40;11.37;;;10.27;;
2712;SDS011;1366;47.988;7.856;2023-02-28T16:32:06;10.50;;;9.50;;
2712;SDS011;1366;47.988;7.856;2023-02-28T16:34:33;11.57;;;10.30;;
2712;SDS011;1366;47.988;7.856;2023-02-28T16:37:02;11.27;;;10.20;;
2712;SDS011;1366;47.988;7.856;2023-02-28T16:39:28;10.83;;;9.83;;
2712;SDS011;1366;47.988;7.856;2023-02-28T16:41:54;11.00;;;9.90;;
2712;SDS011;1366;47.988;7.856;2023-02-28T16:44:23;11.97;;;9.97;;
2712;SDS011;1366;47.988;7.856;2023-02-28T16:46:51;11.20;;;10.13;;
2712;SDS011;1366;47.988;7.856;2023-02-28T16:49:17;10.90;;;9.90;;
2712;SDS011;1366;47.988;7.856;2023-02-28T16:51:43;11.70;;;10.50;;
2712;SDS011;1366;47.988;7.856;2023-02-28T16:54:09;10.90;;;9.80;;
2712;SDS011;1366;47.988;7.856;2023-02-28T16:56:42;12.00;;;9.67;;
2712;SDS011;1366;47.988;7.856;2023-02-28T16:59:09;10.80;;;9.80;;
2712;SDS011;1366;47.988;7.856;2023-02-28T17:01:36;12.03;;;10.67;;
2712;SDS011;1366;47.988;7.856;2023-02-28T17:04:02;10.93;;;9.83;;
2712;SDS011;1366;47.988;7.856;2023-02-28T17:06:28;12.90;;;10.87;;
2712;SDS011;1366;47.988;7.856;2023-02-28T17:08:55;11.67;;;9.30;;
2712;SDS011;1366;47.988;7.856;2023-02-28T17:11:22;12.93;;;10.50;;
2712;SDS011;1366;47.988;7.856;2023-02-28T17:13:48;12.20;;;10.50;;
2712;SDS011;1366;47.988;7.856;2023-02-28T17:16:22;13.40;;;10.47;;
2712;SDS011;1366;47.988;7.856;2023-02-28T17:18:51;12.50;;;10.10;;
2712;SDS011;1366;47.988;7.856;2023-02-28T17:21:18;12.73;;;11.10;;
2712;SDS011;1366;47.988;7.856;2023-02-28T17:23:44;12.20;;;10.23;;
2712;SDS011;1366;47.988;7.856;2023-02-28T17:26:14;10.73;;;9.60;;
2712;SDS011;1366;47.988;7.856;2023-02-28T17:28:42;11.80;;;10.57;;
2712;SDS011;1366;47.988;7.856;2023-02-28T17:31:09;11.70;;;10.40;;
2712;SDS011;1366;47.988;7.856;2023-02-28T17:33:35;10.80;;;9.70;;
2712;SDS011;1366;47.988;7.856;2023-02-28T17:36:01;10.77;;;9.70;;
2712;SDS011;1366;47.988;7.856;2023-02-28T17:38:27;12.70;;;10.37;;
2712;SDS011;1366;47.988;7.856;2023-02-28T17:40:53;13.40;;;11.10;;
2712;SDS011;1366;47.988;7.856;2023-02-28T17:43:22;13.10;;;10.63;;
2712;SDS011;1366;47.988;7.856;2023-02-28T17:45:48;11.97;;;10.53;;
2712;SDS011;1366;47.988;7.856;2023-02-28T17:48:14;11.87;;;10.50;;
2712;SDS011;1366;47.988;7.856;2023-02-28T17:50:41;11.90;;;10.40;;
2712;SDS011;1366;47.988;7.856;2023-02-28T17:53:07;11.90;;;10.70;;
2712;SDS011;1366;47.988;7.856;2023-02-28T17:55:34;11.50;;;10.30;;
2712;SDS011;1366;47.988;7.856;2023-02-28T17:58:00;11.50;;;10.30;;
2712;SDS011;1366;47.988;7.856;2023-02-28T18:00:27;11.83;;;10.63;;
2712;SDS011;1366;47.988;7.856;2023-02-28T18:02:54;11.20;;;10.00;;
2712;SDS011;1366;47.988;7.856;2023-02-28T18:05:20;11.93;;;10.73;;
2712;SDS011;1366;47.988;7.856;2023-02-28T18:07:46;11.87;;;10.77;;
2712;SDS011;1366;47.988;7.856;2023-02-28T18:12:45;12.50;;;11.20;;
2712;SDS011;1366;47.988;7.856;2023-02-28T18:15:11;12.87;;;11.57;;
2712;SDS011;1366;47.988;7.856;2023-02-28T18:17:37;15.40;;;11.90;;
2712;SDS011;1366;47.988;7.856;2023-02-28T18:20:03;13.30;;;11.90;;
2712;SDS011;1366;47.988;7.856;2023-02-28T18:22:29;17.33;;;12.77;;
2712;SDS011;1366;47.988;7.856;2023-02-28T18:24:56;13.17;;;11.97;;
2712;SDS011;1366;47.988;7.856;2023-02-28T18:27:22;13.80;;;12.40;;
2712;SDS011;1366;47.988;7.856;2023-02-28T18:29:48;14.47;;;13.00;;
2712;SDS011;1366;47.988;7.856;2023-02-28T18:32:16;15.73;;;14.13;;
2712;SDS011;1366;47.988;7.856;2023-02-28T18:34:42;15.00;;;13.37;;
2712;SDS011;1366;47.988;7.856;2023-02-28T18:37:08;22.53;;;18.93;;
2712;SDS011;1366;47.988;7.856;2023-02-28T18:39:35;18.20;;;14.80;;
2712;SDS011;1366;47.988;7.856;2023-02-28T18:42:02;18.37;;;14.47;;
2712;SDS011;1366;47.988;7.856;2023-02-28T18:44:28;15.77;;;14.20;;
2712;SDS011;1366;47.988;7.856;2023-02-28T18:46:54;15.57;;;13.97;;
2712;SDS011;1366;47.988;7.856;2023-02-28T18:49:20;14.67;;;13.23;;
2712;SDS011;1366;47.988;7.856;2023-02-28T18:51:46;14.27;;;12.87;;
2712;SDS011;1366;47.988;7.856;2023-02-28T18:54:12;15.93;;;13.80;;
2712;SDS011;1366;47.988;7.856;2023-02-28T18:56:38;16.00;;;13.13;;
2712;SDS011;1366;47.988;7.856;2023-02-28T18:59:04;14.83;;;12.50;;
2712;SDS011;1366;47.988;7.856;2023-02-28T19:01:31;15.07;;;13.47;;
2712;SDS011;1366;47.988;7.856;2023-02-28T19:03:58;14.77;;;13.20;;
2712;SDS011;1366;47.988;7.856;2023-02-28T19:06:25;14.73;;;12.97;;
2712;SDS011;1366;47.988;7.856;2023-02-28T19:08:52;15.30;;;13.80;;
2712;SDS011;1366;47.988;7.856;2023-02-28T19:11:18;15.63;;;14.00;;
2712;SDS011;1366;47.988;7.856;2023-02-28T19:13:45;15.63;;;13.30;;
2712;SDS011;1366;47.988;7.856;2023-02-28T19:16:12;15.33;;;13.83;;
2712;SDS011;1366;47.988;7.856;2023-02-28T19:18:38;14.63;;;13.03;;
2712;SDS011;1366;47.988;7.856;2023-02-28T19:21:05;17.33;;;13.50;;
2712;SDS011;1366;47.988;7.856;2023-02-28T19:23:32;14.70;;;12.93;;
2712;SDS011;1366;47.988;7.856;2023-02-28T19:25:58;14.07;;;12.67;;
2712;SDS011;1366;47.988;7.856;2023-02-28T19:28:27;14.60;;;13.00;;
2712;SDS011;1366;47.988;7.856;2023-02-28T19:30:54;18.17;;;13.77;;
2712;SDS011;1366;47.988;7.856;2023-02-28T19:33:21;15.23;;;13.73;;
2712;SDS011;1366;47.988;7.856;2023-02-28T19:35:47;15.27;;;13.23;;
2712;SDS011;1366;47.988;7.856;2023-02-28T19:38:13;15.40;;;13.80;;
2712;SDS011;1366;47.988;7.856;2023-02-28T19:40:40;16.67;;;14.93;;
2712;SDS011;1366;47.988;7.856;2023-02-28T19:43:06;14.90;;;13.40;;
2712;SDS011;1366;47.988;7.856;2023-02-28T19:45:32;18.50;;;15.20;;
2712;SDS011;1366;47.988;7.856;2023-02-28T19:47:59;22.63;;;15.03;;
2712;SDS011;1366;47.988;7.856;2023-02-28T19:50:25;17.60;;;13.67;;
2712;SDS011;1366;47.988;7.856;2023-02-28T19:52:51;17.40;;;13.90;;
2712;SDS011;1366;47.988;7.856;2023-02-28T19:55:18;18.40;;;15.30;;
2712;SDS011;1366;47.988;7.856;2023-02-28T19:57:44;17.50;;;14.70;;
2712;SDS011;1366;47.988;7.856;2023-02-28T20:00:11;17.03;;;14.77;;
2712;SDS011;1366;47.988;7.856;2023-02-28T20:02:38;18.33;;;14.93;;
2712;SDS011;1366;47.988;7.856;2023-02-28T20:05:04;16.90;;;14.70;;
2712;SDS011;1366;47.988;7.856;2023-02-28T20:07:30;15.27;;;13.40;;
2712;SDS011;1366;47.988;7.856;2023-02-28T20:09:56;14.90;;;13.30;;
2712;SDS011;1366;47.988;7.856;2023-02-28T20:12:23;16.33;;;14.17;;
2712;SDS011;1366;47.988;7.856;2023-02-28T20:14:50;16.70;;;13.43;;
2712;SDS011;1366;47.988;7.856;2023-02-28T20:17:16;15.87;;;14.17;;
2712;SDS011;1366;47.988;7.856;2023-02-28T20:19:42;14.37;;;12.87;;
2712;SDS011;1366;47.988;7.856;2023-02-28T20:22:08;15.73;;;14.00;;
2712;SDS011;1366;47.988;7.856;2023-02-28T20:24:37;16.13;;;14.03;;
2712;SDS011;1366;47.988;7.856;2023-02-28T20:27:03;16.90;;;13.57;;
2712;SDS011;1366;47.988;7.856;2023-02-28T20:29:29;14.50;;;13.10;;
2712;SDS011;1366;47.988;7.856;2023-02-28T20:31:56;19.10;;;14.80;;
2712;SDS011;1366;47.988;7.856;2023-02-28T20:34:22;15.00;;;13.50;;
2712;SDS011;1366;47.988;7.856;2023-02-28T20:36:49;15.73;;;13.20;;
2712;SDS011;1366;47.988;7.856;2023-02-28T20:39:15;16.40;;;13.37;;
2712;SDS011;1366;47.988;7.856;2023-02-28T20:41:41;15.03;;;12.90;;
2712;SDS011;1366;47.988;7.856;2023-02-28T20:44:08;14.43;;;12.90;;
2712;SDS011;1366;47.988;7.856;2023-02-28T20:46:36;15.23;;;12.80;;
2712;SDS011;1366;47.988;7.856;2023-02-28T20:49:02;13.77;;;12.37;;
2712;SDS011;1366;47.988;7.856;2023-02-28T20:51:28;14.00;;;12.50;;
2712;SDS011;1366;47.988;7.856;2023-02-28T20:53:55;15.40;;;12.40;;
2712;SDS011;1366;47.988;7.856;2023-02-28T20:56:21;15.87;;;13.27;;
2712;SDS011;1366;47.988;7.856;2023-02-28T20:58:49;15.47;;;13.23;;
2712;SDS011;1366;47.988;7.856;2023-02-28T21:01:20;13.93;;;12.20;;
2712;SDS011;1366;47.988;7.856;2023-02-28T21:03:51;12.83;;;11.50;;
2712;SDS011;1366;47.988;7.856;2023-02-28T21:06:18;15.93;;;14.17;;
2712;SDS011;1366;47.988;7.856;2023-02-28T21:08:44;15.67;;;13.60;;
2712;SDS011;1366;47.988;7.856;2023-02-28T21:11:11;15.57;;;13.93;;
2712;SDS011;1366;47.988;7.856;2023-02-28T21:13:38;16.23;;;14.53;;
2712;SDS011;1366;47.988;7.856;2023-02-28T21:16:05;15.80;;;13.83;;
2712;SDS011;1366;47.988;7.856;2023-02-28T21:18:32;16.83;;;15.03;;
2712;SDS011;1366;47.988;7.856;2023-02-28T21:21:02;16.37;;;13.30;;
2712;SDS011;1366;47.988;7.856;2023-02-28T21:23:28;19.70;;;14.47;;
2712;SDS011;1366;47.988;7.856;2023-02-28T21:25:54;15.00;;;13.60;;
2712;SDS011;1366;47.988;7.856;2023-02-28T21:28:25;14.83;;;13.40;;
2712;SDS011;1366;47.988;7.856;2023-02-28T21:30:51;19.80;;;14.77;;
2712;SDS011;1366;47.988;7.856;2023-02-28T21:33:17;19.67;;;15.50;;
2712;SDS011;1366;47.988;7.856;2023-02-28T21:35:43;18.90;;;15.53;;
2712;SDS011;1366;47.988;7.856;2023-02-28T21:38:09;17.23;;;15.13;;
2712;SDS011;1366;47.988;7.856;2023-02-28T21:40:35;16.90;;;13.13;;
2712;SDS011;1366;47.988;7.856;2023-02-28T21:43:01;17.40;;;14.03;;
2712;SDS011;1366;47.988;7.856;2023-02-28T21:45:27;15.83;;;13.03;;
2712;SDS011;1366;47.988;7.856;2023-02-28T21:47:53;18.03;;;14.37;;
2712;SDS011;1366;47.988;7.856;2023-02-28T21:50:19;16.43;;;14.63;;
2712;SDS011;1366;47.988;7.856;2023-02-28T21:52:45;15.30;;;13.57;;
2712;SDS011;1366;47.988;7.856;2023-02-28T21:55:11;16.50;;;14.80;;
2712;SDS011;1366;47.988;7.856;2023-02-28T21:57:38;15.13;;;13.13;;
2712;SDS011;1366;47.988;7.856;2023-02-28T22:00:04;16.90;;;14.10;;
2712;SDS011;1366;47.988;7.856;2023-02-28T22:02:30;16.37;;;13.50;;
2712;SDS011;1366;47.988;7.856;2023-02-28T22:04:56;18.10;;;14.30;;
2712;SDS011;1366;47.988;7.856;2023-02-28T22:07:27;17.20;;;14.63;;
2712;SDS011;1366;47.988;7.856;2023-02-28T22:09:53;18.73;;;14.83;;
2712;SDS011;1366;47.988;7.856;2023-02-28T22:12:19;15.97;;;14.30;;